Time;durP1;ratioP1;P1;durP2;ratioP2;P2;SDS_P1;SDS_P2;PMS_P1;PMS_P2;Temp;Humidity;BMP_temperature;BMP_pressure;BME280_temperature;BME280_humidity;BME280_pressure;Samples;Min_cycle;Max_cycle;Signal;HPM_P1;HPM_P2
2022/08/09 00:00:08;;;;;;;5.90;4.65;;;18.10;99.90;;;;;;5031245;28;25065;-73
2022/08/09 00:02:37;;;;;;;11.32;5.65;;;18.10;99.90;;;;;;5032285;28;25133;-74
2022/08/09 00:05:04;;;;;;;6.30;3.88;;;18.10;99.90;;;;;;5053300;28;25164;-72
2022/08/09 00:07:29;;;;;;;7.20;4.28;;;18.10;99.90;;;;;;5047437;28;25042;-72
2022/08/09 00:09:55;;;;;;;7.05;5.13;;;18.10;99.90;;;;;;5059742;28;25105;-73
2022/08/09 00:12:21;;;;;;;9.00;4.93;;;18.00;99.90;;;;;;5040775;28;25075;-73
2022/08/09 00:14:46;;;;;;;7.50;4.38;;;18.00;99.90;;;;;;5057506;28;25068;-74
2022/08/09 00:17:12;;;;;;;9.93;4.88;;;18.00;99.90;;;;;;5041014;28;25173;-73
2022/08/09 00:19:37;;;;;;;7.75;5.10;;;18.00;99.90;;;;;;5056605;28;25059;-73
2022/08/09 00:22:03;;;;;;;7.15;5.07;;;18.00;99.90;;;;;;5034655;28;25074;-73
2022/08/09 00:24:30;;;;;;;11.80;5.85;;;17.90;99.90;;;;;;5037452;28;25088;-73
2022/08/09 00:26:57;;;;;;;7.60;5.65;;;17.90;99.90;;;;;;5042900;28;25165;-73
2022/08/09 00:29:22;;;;;;;10.98;4.53;;;17.90;99.90;;;;;;5047556;28;25075;-72
2022/08/09 00:31:48;;;;;;;5.97;5.30;;;18.00;99.90;;;;;;5039438;28;25180;-72
2022/08/09 00:34:13;;;;;;;5.45;4.95;;;18.00;99.90;;;;;;5053815;28;25101;-73
2022/08/09 00:36:39;;;;;;;11.63;5.60;;;17.90;99.90;;;;;;5035248;28;25505;-73
2022/08/09 00:39:06;;;;;;;7.18;6.05;;;17.90;99.90;;;;;;5048646;28;25060;-72
2022/08/09 00:41:32;;;;;;;9.38;5.47;;;17.90;99.90;;;;;;5046582;28;25118;-72
2022/08/09 00:43:57;;;;;;;9.18;6.60;;;17.90;99.90;;;;;;5040303;28;25065;-72
2022/08/09 00:46:23;;;;;;;10.52;6.65;;;17.90;99.90;;;;;;5039984;28;25060;-74
2022/08/09 00:48:49;;;;;;;11.43;5.82;;;17.90;99.90;;;;;;5043589;28;25060;-72
2022/08/09 00:51:16;;;;;;;7.72;6.22;;;18.00;99.90;;;;;;5043022;28;25073;-73
2022/08/09 00:53:42;;;;;;;9.50;6.63;;;17.90;99.90;;;;;;5063935;28;25038;-74
2022/08/09 00:56:08;;;;;;;8.95;7.07;;;17.90;99.90;;;;;;5069594;28;25068;-72
2022/08/09 00:58:34;;;;;;;9.50;6.82;;;17.90;99.90;;;;;;5082002;28;25060;-73
2022/08/09 01:01:05;;;;;;;11.68;7.18;;;17.70;99.90;;;;;;5080485;28;25037;-72
2022/08/09 01:03:53;;;;;;;11.50;6.38;;;17.70;99.90;;;;;;5085936;28;25066;-73
2022/08/09 01:06:23;;;;;;;10.73;7.72;;;17.70;99.90;;;;;;5072824;28;25127;-73
2022/08/09 01:09:07;;;;;;;8.45;6.93;;;17.70;99.90;;;;;;5053893;28;25076;-74
2022/08/09 01:11:44;;;;;;;10.77;8.32;;;17.60;99.90;;;;;;5045113;28;25159;-72
2022/08/09 01:14:22;;;;;;;10.38;7.43;;;17.60;99.90;;;;;;5037715;28;25124;-72
2022/08/09 01:16:54;;;;;;;8.85;6.93;;;17.60;99.90;;;;;;5048528;28;25092;-72
2022/08/09 01:19:36;;;;;;;11.05;7.68;;;17.60;99.90;;;;;;5057271;28;25105;-73
2022/08/09 01:22:43;;;;;;;11.70;7.43;;;17.60;99.90;;;;;;5049638;28;25063;-73
2022/08/09 01:25:23;;;;;;;11.02;7.05;;;17.60;99.90;;;;;;5056478;28;25070;-72
2022/08/09 01:27:53;;;;;;;11.80;8.48;;;17.70;99.90;;;;;;5055192;28;25068;-71
2022/08/09 01:30:21;;;;;;;10.23;7.68;;;17.60;99.90;;;;;;5064953;28;25052;-73
2022/08/09 01:32:49;;;;;;;11.85;7.45;;;17.60;99.90;;;;;;5054420;28;25075;-73
2022/08/09 01:35:28;;;;;;;9.48;7.38;;;17.60;99.90;;;;;;5072563;28;25087;-71
2022/08/09 01:37:57;;;;;;;8.30;7.47;;;17.70;99.90;;;;;;5066463;28;25061;-73
2022/08/09 01:40:25;;;;;;;12.70;7.38;;;17.60;99.90;;;;;;5067683;28;25052;-73
2022/08/09 01:42:53;;;;;;;11.43;7.45;;;17.60;99.90;;;;;;5068353;28;25074;-74
2022/08/09 01:45:21;;;;;;;10.77;8.05;;;17.60;99.90;;;;;;5071447;28;25064;-72
2022/08/09 01:47:47;;;;;;;17.05;8.40;;;17.50;99.90;;;;;;5068582;28;25064;-71
2022/08/09 01:50:14;;;;;;;13.45;8.40;;;17.50;99.90;;;;;;5063560;28;25058;-71
2022/08/09 01:52:42;;;;;;;9.35;8.27;;;17.50;99.90;;;;;;5065485;28;25072;-72
2022/08/09 01:55:09;;;;;;;11.18;8.32;;;17.50;99.90;;;;;;5059184;28;25112;-73
2022/08/09 01:57:44;;;;;;;12.25;8.73;;;17.50;99.90;;;;;;5064932;28;25056;-72
2022/08/09 02:00:13;;;;;;;13.35;9.68;;;17.50;99.90;;;;;;5070450;28;25128;-73
2022/08/09 02:02:43;;;;;;;13.77;9.82;;;17.50;99.90;;;;;;5078487;28;25050;-73
2022/08/09 02:05:12;;;;;;;11.50;9.02;;;17.50;99.90;;;;;;5083867;28;25081;-73
2022/08/09 02:07:45;;;;;;;13.32;8.95;;;17.50;99.90;;;;;;5081547;28;25065;-73
2022/08/09 02:10:20;;;;;;;12.00;9.27;;;17.50;99.90;;;;;;5070557;28;25112;-74
2022/08/09 02:12:46;;;;;;;12.00;8.23;;;17.50;99.90;;;;;;5081507;28;25052;-74
2022/08/09 02:15:15;;;;;;;12.27;8.80;;;17.50;99.90;;;;;;5074015;28;25100;-74
2022/08/09 02:17:45;;;;;;;13.57;9.25;;;17.60;99.90;;;;;;5073192;28;25088;-73
2022/08/09 02:20:11;;;;;;;14.13;9.73;;;17.50;99.90;;;;;;5068882;28;25049;-73
2022/08/09 02:22:54;;;;;;;13.30;9.07;;;17.60;99.90;;;;;;5069432;28;25106;-73
2022/08/09 02:25:24;;;;;;;24.50;9.77;;;17.60;99.90;;;;;;5076759;28;25052;-76
2022/08/09 02:28:01;;;;;;;12.05;8.30;;;17.60;99.90;;;;;;5063629;28;25065;-74
2022/08/09 02:30:32;;;;;;;13.05;9.05;;;17.50;99.90;;;;;;5061523;28;25083;-72
2022/08/09 02:32:59;;;;;;;11.38;8.35;;;17.60;99.90;;;;;;5058026;28;25068;-72
2022/08/09 02:35:26;;;;;;;8.95;7.85;;;17.80;99.90;;;;;;5080155;28;25064;-72
2022/08/09 02:37:56;;;;;;;12.02;8.75;;;17.80;99.90;;;;;;5075278;28;25072;-73
2022/08/09 02:40:23;;;;;;;15.38;8.40;;;17.70;99.90;;;;;;5081485;28;25059;-73
2022/08/09 02:42:52;;;;;;;11.93;8.20;;;17.60;99.90;;;;;;5065613;28;25072;-73
2022/08/09 02:45:27;;;;;;;11.98;8.82;;;17.60;99.90;;;;;;5067628;28;25081;-74
2022/08/09 02:47:57;;;;;;;10.13;8.20;;;17.50;99.90;;;;;;5065952;28;25069;-73
2022/08/09 02:50:27;;;;;;;13.82;8.20;;;17.40;99.90;;;;;;5071642;28;25058;-72
2022/08/09 02:52:58;;;;;;;9.73;7.85;;;17.50;99.90;;;;;;5083206;28;25088;-72
2022/08/09 02:55:25;;;;;;;11.05;8.38;;;17.50;99.90;;;;;;5067702;28;25065;-73
2022/08/09 02:57:53;;;;;;;9.32;8.07;;;17.50;99.90;;;;;;5069908;28;25065;-74
2022/08/09 03:00:19;;;;;;;13.15;7.93;;;17.50;99.90;;;;;;5067911;28;25120;-74
2022/08/09 03:02:50;;;;;;;13.50;8.50;;;17.60;99.90;;;;;;5055158;28;25049;-74
2022/08/09 03:05:16;;;;;;;8.73;7.80;;;17.60;99.90;;;;;;5062149;28;25069;-74
2022/08/09 03:07:43;;;;;;;13.23;7.78;;;17.60;99.90;;;;;;5071127;28;25065;-73
2022/08/09 03:10:10;;;;;;;15.13;8.80;;;17.60;99.90;;;;;;5062546;28;25081;-74
2022/08/09 03:12:37;;;;;;;13.45;7.85;;;17.50;99.90;;;;;;5075020;28;25059;-74
2022/08/09 03:15:04;;;;;;;11.73;8.32;;;17.40;99.90;;;;;;5060828;28;25058;-73
2022/08/09 03:17:32;;;;;;;11.43;8.77;;;17.50;99.90;;;;;;5052556;28;25068;-72
2022/08/09 03:19:59;;;;;;;10.75;8.63;;;17.50;99.90;;;;;;5057527;28;25076;-74
2022/08/09 03:22:28;;;;;;;11.68;9.18;;;17.40;99.90;;;;;;5054426;28;25086;-74
2022/08/09 03:24:54;;;;;;;8.88;7.60;;;17.30;99.90;;;;;;5054182;28;25064;-73
2022/08/09 03:27:20;;;;;;;10.27;8.65;;;17.30;99.90;;;;;;5055327;28;25064;-73
2022/08/09 03:29:46;;;;;;;13.82;9.25;;;17.30;99.90;;;;;;5051923;28;25086;-73
2022/08/09 03:32:14;;;;;;;12.73;9.45;;;17.30;99.90;;;;;;5045278;28;25096;-74
2022/08/09 03:34:40;;;;;;;12.00;9.73;;;17.30;99.90;;;;;;5045412;28;25059;-72
2022/08/09 03:37:06;;;;;;;16.38;9.43;;;17.20;99.90;;;;;;5047460;28;25084;-74
2022/08/09 03:39:31;;;;;;;13.23;9.98;;;17.20;99.90;;;;;;5040632;28;25079;-72
2022/08/09 03:41:57;;;;;;;17.88;9.18;;;17.20;99.90;;;;;;5046650;28;25092;-73
2022/08/09 03:44:24;;;;;;;14.57;9.98;;;17.20;99.90;;;;;;5047930;28;25064;-73
2022/08/09 03:46:51;;;;;;;18.80;10.40;;;17.20;99.90;;;;;;5043923;28;25069;-73
2022/08/09 03:49:17;;;;;;;14.60;8.82;;;17.20;99.90;;;;;;5042116;28;25058;-73
2022/08/09 03:51:45;;;;;;;12.20;8.65;;;17.30;99.90;;;;;;5041659;28;25063;-73
2022/08/09 03:54:12;;;;;;;12.75;8.65;;;17.20;99.90;;;;;;5043612;28;25073;-74
2022/08/09 03:56:43;;;;;;;13.05;11.02;;;17.20;99.90;;;;;;5052616;28;25097;-73
2022/08/09 03:59:10;;;;;;;11.10;9.77;;;17.20;99.90;;;;;;5061624;28;25063;-73
2022/08/09 04:01:37;;;;;;;12.95;10.38;;;17.20;99.90;;;;;;5067930;28;25065;-74
2022/08/09 04:04:04;;;;;;;17.73;10.95;;;17.10;99.90;;;;;;5059106;28;25066;-73
2022/08/09 04:06:30;;;;;;;13.32;10.00;;;17.10;99.90;;;;;;5051778;28;25067;-72
2022/08/09 04:08:55;;;;;;;14.00;9.95;;;17.10;99.90;;;;;;5061573;28;25067;-73
2022/08/09 04:11:21;;;;;;;14.32;10.93;;;17.20;99.90;;;;;;5060018;28;25073;-73
2022/08/09 04:13:46;;;;;;;13.00;11.15;;;17.10;99.90;;;;;;5060960;28;25084;-73
2022/08/09 04:16:12;;;;;;;19.52;10.95;;;17.00;99.90;;;;;;5055865;28;25090;-72
2022/08/09 04:18:39;;;;;;;15.50;10.70;;;17.10;99.90;;;;;;5067015;28;25096;-73
2022/08/09 04:21:05;;;;;;;17.42;10.60;;;17.10;99.90;;;;;;5065802;28;25048;-72
2022/08/09 04:23:31;;;;;;;16.45;10.52;;;17.10;99.90;;;;;;5055460;28;25072;-73
2022/08/09 04:25:56;;;;;;;14.15;11.45;;;17.20;99.90;;;;;;5066735;28;25084;-73
2022/08/09 04:28:24;;;;;;;14.30;9.95;;;17.20;99.90;;;;;;5064186;28;25079;-73
2022/08/09 04:30:49;;;;;;;14.75;10.23;;;17.20;99.90;;;;;;5059668;28;25069;-73
2022/08/09 04:33:15;;;;;;;21.48;12.10;;;17.20;99.90;;;;;;5049382;28;25136;-73
2022/08/09 04:35:41;;;;;;;19.60;10.20;;;17.10;99.90;;;;;;5039665;28;25077;-72
2022/08/09 04:38:07;;;;;;;18.40;10.82;;;17.20;99.90;;;;;;5044234;28;25079;-69
2022/08/09 04:40:48;;;;;;;14.65;10.77;;;17.20;99.90;;;;;;5047206;28;25065;-75
2022/08/09 04:43:15;;;;;;;14.80;12.15;;;17.20;99.90;;;;;;5044624;28;25186;-72
2022/08/09 04:45:41;;;;;;;13.93;10.50;;;17.10;99.90;;;;;;5035744;28;25172;-73
2022/08/09 04:48:06;;;;;;;14.68;10.43;;;17.10;99.90;;;;;;5055094;28;25106;-74
2022/08/09 04:50:32;;;;;;;17.17;11.60;;;17.10;99.90;;;;;;5051331;28;25067;-73
2022/08/09 04:52:57;;;;;;;16.92;11.88;;;17.10;99.90;;;;;;5062489;28;25084;-74
2022/08/09 04:55:23;;;;;;;15.80;10.82;;;17.10;99.90;;;;;;5058900;28;25080;-74
2022/08/09 04:57:49;;;;;;;20.17;12.27;;;17.20;99.90;;;;;;5048291;28;25109;-74
2022/08/09 05:00:14;;;;;;;19.58;12.13;;;17.20;99.90;;;;;;5042359;28;25075;-74
2022/08/09 05:02:42;;;;;;;14.43;11.25;;;17.10;99.90;;;;;;5042075;28;25058;-73
2022/08/09 05:05:09;;;;;;;17.42;11.98;;;17.10;99.90;;;;;;5034068;28;25048;-78
2022/08/09 05:07:34;;;;;;;13.48;11.80;;;17.20;99.90;;;;;;5044756;28;25072;-75
2022/08/09 05:10:00;;;;;;;15.45;11.25;;;17.20;99.90;;;;;;5052019;28;25091;-71
2022/08/09 05:12:25;;;;;;;15.15;12.05;;;17.20;99.90;;;;;;5040554;28;25125;-73
2022/08/09 05:14:51;;;;;;;16.80;12.65;;;17.20;99.90;;;;;;5055599;28;25093;-74
2022/08/09 05:17:16;;;;;;;19.58;12.40;;;17.20;99.90;;;;;;5050294;28;25072;-72
2022/08/09 05:19:42;;;;;;;18.17;11.85;;;17.20;99.90;;;;;;5048859;28;25061;-74
2022/08/09 05:22:11;;;;;;;19.10;11.60;;;17.30;99.90;;;;;;5034773;28;25115;-74
2022/08/09 05:24:36;;;;;;;15.25;10.73;;;17.30;99.90;;;;;;5037728;28;25066;-74
2022/08/09 05:27:02;;;;;;;17.67;12.48;;;17.40;99.90;;;;;;5030740;28;25066;-73
2022/08/09 05:29:28;;;;;;;16.33;10.38;;;17.40;99.90;;;;;;5031234;28;25071;-74
2022/08/09 05:31:58;;;;;;;19.20;11.00;;;17.40;99.90;;;;;;5044518;28;25075;-73
2022/08/09 05:34:30;;;;;;;17.55;10.85;;;17.40;99.90;;;;;;5038476;28;25068;-73
2022/08/09 05:36:56;;;;;;;13.82;12.00;;;17.40;99.90;;;;;;5040771;28;25097;-74
2022/08/09 05:39:22;;;;;;;16.23;11.75;;;17.40;99.90;;;;;;5040111;28;25083;-74
2022/08/09 05:41:48;;;;;;;15.35;10.98;;;17.40;99.90;;;;;;5048868;28;25068;-75
2022/08/09 05:44:14;;;;;;;16.63;12.27;;;17.50;99.90;;;;;;5040584;28;25060;-73
2022/08/09 05:46:40;;;;;;;14.85;10.85;;;17.60;99.90;;;;;;5047786;28;25129;-75
2022/08/09 05:49:06;;;;;;;14.68;10.88;;;17.60;99.90;;;;;;5046207;28;25170;-75
2022/08/09 05:51:31;;;;;;;16.23;11.35;;;17.60;99.90;;;;;;5046390;28;25107;-73
2022/08/09 05:53:57;;;;;;;18.10;11.43;;;17.60;99.90;;;;;;5054012;28;25083;-74
2022/08/09 05:56:23;;;;;;;13.73;10.93;;;17.70;99.90;;;;;;5047630;28;25079;-77
2022/08/09 05:58:49;;;;;;;13.73;10.68;;;17.80;99.90;;;;;;5050121;28;25050;-74
2022/08/09 06:01:15;;;;;;;18.33;11.70;;;17.80;99.90;;;;;;5053304;28;25061;-74
2022/08/09 06:03:41;;;;;;;13.73;9.45;;;17.80;99.90;;;;;;5050075;28;25055;-77
2022/08/09 06:06:06;;;;;;;17.00;11.93;;;17.90;99.90;;;;;;5059551;28;25048;-73
2022/08/09 06:08:32;;;;;;;15.98;10.32;;;17.80;99.90;;;;;;5036611;28;25104;-71
2022/08/09 06:10:58;;;;;;;18.40;10.15;;;17.80;99.90;;;;;;5048403;28;25054;-76
2022/08/09 06:13:24;;;;;;;16.33;10.75;;;17.90;99.90;;;;;;5045902;28;25184;-74
2022/08/09 06:15:51;;;;;;;18.85;10.93;;;17.90;99.90;;;;;;5044638;28;26188;-74
2022/08/09 06:18:17;;;;;;;14.73;9.50;;;18.00;99.90;;;;;;5040558;28;25116;-73
2022/08/09 06:20:42;;;;;;;17.85;10.70;;;18.10;99.90;;;;;;5043787;28;25100;-74
2022/08/09 06:23:08;;;;;;;15.75;9.88;;;18.10;99.90;;;;;;5041467;28;25078;-73
2022/08/09 06:25:33;;;;;;;17.25;10.85;;;18.20;99.90;;;;;;5044559;28;25059;-71
2022/08/09 06:27:59;;;;;;;14.65;10.10;;;18.10;99.90;;;;;;5035686;28;25104;-75
2022/08/09 06:30:24;;;;;;;10.95;9.38;;;18.00;99.90;;;;;;5051522;28;25170;-75
2022/08/09 06:32:51;;;;;;;17.25;10.52;;;18.00;99.90;;;;;;5041724;28;25065;-74
2022/08/09 06:35:17;;;;;;;17.25;10.38;;;18.30;99.90;;;;;;5045800;28;25089;-74
2022/08/09 06:37:43;;;;;;;14.65;9.55;;;18.20;99.90;;;;;;5055330;28;25074;-74
2022/08/09 06:40:09;;;;;;;16.50;9.75;;;18.30;99.90;;;;;;5045869;28;25067;-74
2022/08/09 06:42:35;;;;;;;14.15;9.45;;;18.30;99.90;;;;;;5041904;28;25063;-74
2022/08/09 06:45:01;;;;;;;13.68;9.82;;;18.40;99.90;;;;;;5044045;28;25134;-74
2022/08/09 06:47:26;;;;;;;18.73;10.02;;;18.30;99.90;;;;;;5050852;28;25102;-75
2022/08/09 06:49:53;;;;;;;12.50;9.35;;;18.30;99.90;;;;;;5042983;28;25137;-74
2022/08/09 06:52:19;;;;;;;13.32;9.57;;;18.40;99.90;;;;;;5034795;28;25115;-75
2022/08/09 06:54:45;;;;;;;12.68;9.13;;;18.20;99.90;;;;;;5046118;28;25086;-75
2022/08/09 06:57:10;;;;;;;16.25;10.45;;;18.30;99.90;;;;;;5062366;28;25130;-75
2022/08/09 06:59:36;;;;;;;13.93;9.73;;;18.30;99.90;;;;;;5055930;28;25078;-74
2022/08/09 07:02:02;;;;;;;15.60;9.80;;;18.40;99.90;;;;;;5065029;28;25078;-76
2022/08/09 07:04:28;;;;;;;14.10;9.52;;;18.50;99.90;;;;;;5059464;28;25076;-74
2022/08/09 07:06:53;;;;;;;16.17;9.07;;;18.50;99.90;;;;;;5060532;28;25067;-74
2022/08/09 07:09:20;;;;;;;14.35;9.15;;;18.70;99.90;;;;;;5055176;28;25063;-74
2022/08/09 07:11:46;;;;;;;16.67;8.98;;;18.70;99.90;;;;;;5045260;28;25048;-74
2022/08/09 07:14:16;;;;;;;14.23;8.45;;;18.90;99.90;;;;;;5055739;28;25078;-75
2022/08/09 07:16:42;;;;;;;13.23;8.88;;;19.00;99.90;;;;;;5034940;28;25070;-73
2022/08/09 07:19:10;;;;;;;12.10;8.38;;;19.00;99.90;;;;;;5043393;28;25058;-75
2022/08/09 07:21:36;;;;;;;13.95;9.10;;;19.00;99.90;;;;;;5041786;28;25073;-76
2022/08/09 07:24:03;;;;;;;12.63;9.05;;;19.10;99.90;;;;;;5031321;28;25052;-76
2022/08/09 07:26:28;;;;;;;10.07;8.00;;;19.30;99.90;;;;;;5046616;28;25047;-76
2022/08/09 07:28:54;;;;;;;9.32;7.50;;;19.40;99.90;;;;;;5036163;28;25115;-75
2022/08/09 07:31:19;;;;;;;8.60;7.45;;;19.30;99.90;;;;;;5039169;28;25083;-75
2022/08/09 07:33:45;;;;;;;13.77;7.57;;;19.50;99.90;;;;;;5062998;28;25054;-76
2022/08/09 07:36:12;;;;;;;15.27;7.68;;;19.60;99.90;;;;;;5075033;28;25066;-75
2022/08/09 07:38:38;;;;;;;9.32;6.57;;;19.70;99.90;;;;;;5057865;28;25052;-74
2022/08/09 07:41:03;;;;;;;13.07;6.97;;;19.60;99.90;;;;;;5056441;28;25086;-75
2022/08/09 07:43:29;;;;;;;8.68;5.63;;;19.80;99.90;;;;;;5044961;28;25072;-76
2022/08/09 07:45:54;;;;;;;10.57;6.10;;;20.10;99.90;;;;;;5044123;28;25046;-77
2022/08/09 07:48:20;;;;;;;8.50;5.35;;;20.00;99.90;;;;;;5046882;28;25080;-77
2022/08/09 07:50:45;;;;;;;9.80;5.18;;;20.10;99.90;;;;;;5044456;28;25062;-76
2022/08/09 07:53:11;;;;;;;10.35;4.82;;;20.30;99.90;;;;;;5040949;28;25070;-75
2022/08/09 07:55:37;;;;;;;9.98;4.53;;;20.50;99.90;;;;;;5037175;28;25067;-75
2022/08/09 07:58:03;;;;;;;7.18;4.60;;;20.60;99.90;;;;;;5051190;28;25059;-75
2022/08/09 08:00:29;;;;;;;7.13;5.32;;;20.90;99.90;;;;;;5040903;28;25057;-75
2022/08/09 08:02:59;;;;;;;6.18;4.80;;;20.60;99.90;;;;;;5043603;28;25077;-76
2022/08/09 08:05:26;;;;;;;7.05;5.13;;;20.80;99.90;;;;;;5053401;28;25063;-76
2022/08/09 08:07:53;;;;;;;9.98;3.58;;;20.50;99.90;;;;;;5051446;28;25079;-75
2022/08/09 08:10:19;;;;;;;6.80;4.43;;;20.80;99.90;;;;;;5052853;28;25055;-76
2022/08/09 08:12:45;;;;;;;8.82;4.85;;;21.00;99.90;;;;;;5056964;28;25059;-76
2022/08/09 08:15:14;;;;;;;8.68;3.90;;;21.10;99.90;;;;;;5037184;28;25086;-75
2022/08/09 08:17:41;;;;;;;6.38;4.07;;;20.90;99.90;;;;;;5051540;28;25050;-74
2022/08/09 08:20:07;;;;;;;7.18;3.67;;;21.10;99.90;;;;;;5042501;28;25103;-74
2022/08/09 08:22:32;;;;;;;8.73;3.58;;;21.40;99.90;;;;;;5051767;28;25085;-74
2022/08/09 08:24:58;;;;;;;7.10;3.20;;;21.60;99.90;;;;;;5048895;28;25148;-75
2022/08/09 08:27:24;;;;;;;6.75;2.80;;;21.60;99.90;;;;;;5048327;28;25086;-76
2022/08/09 08:29:51;;;;;;;3.85;2.45;;;21.60;99.90;;;;;;5044965;28;25058;-74
2022/08/09 08:32:19;;;;;;;11.25;2.65;;;21.40;99.90;;;;;;5050771;28;25091;-77
2022/08/09 08:34:45;;;;;;;5.28;2.25;;;21.50;99.90;;;;;;5041584;28;25071;-74
2022/08/09 08:37:11;;;;;;;2.92;1.90;;;21.70;99.90;;;;;;5040619;28;25076;-74
2022/08/09 08:39:36;;;;;;;8.00;2.38;;;22.00;99.90;;;;;;5048259;28;25106;-73
2022/08/09 08:42:02;;;;;;;5.45;2.03;;;21.70;99.90;;;;;;5038442;28;25081;-74
2022/08/09 08:44:28;;;;;;;4.60;2.00;;;21.80;99.90;;;;;;5043240;28;25158;-73
2022/08/09 08:46:56;;;;;;;4.50;2.10;;;21.90;99.90;;;;;;5048656;28;25076;-72
2022/08/09 08:49:21;;;;;;;2.60;2.38;;;22.00;99.90;;;;;;5052401;28;25136;-74
2022/08/09 08:51:48;;;;;;;2.67;1.77;;;21.60;99.90;;;;;;5051784;28;25093;-74
2022/08/09 08:54:14;;;;;;;3.20;1.67;;;21.80;99.90;;;;;;5044527;28;25101;-73
2022/08/09 08:56:40;;;;;;;4.70;2.30;;;21.90;99.90;;;;;;5059423;28;25152;-74
2022/08/09 08:59:11;;;;;;;4.18;1.55;;;22.10;99.90;;;;;;5046503;28;25085;-73
2022/08/09 09:01:39;;;;;;;1.83;1.73;;;22.40;99.90;;;;;;5054814;28;25069;-75
2022/08/09 09:04:10;;;;;;;3.35;1.60;;;22.30;99.90;;;;;;5049307;28;25085;-73
2022/08/09 09:06:40;;;;;;;4.72;2.00;;;22.30;99.90;;;;;;5057265;28;25058;-73
2022/08/09 09:09:06;;;;;;;2.70;1.52;;;22.40;99.90;;;;;;5047351;28;25138;-74
2022/08/09 09:11:34;;;;;;;4.78;1.20;;;22.10;99.90;;;;;;5057958;28;25072;-74
2022/08/09 09:14:02;;;;;;;1.80;1.20;;;22.40;99.90;;;;;;5055537;28;25043;-76
2022/08/09 09:16:32;;;;;;;3.15;1.60;;;22.60;99.90;;;;;;5048305;28;25060;-74
2022/08/09 09:19:07;;;;;;;2.15;1.10;;;22.80;99.90;;;;;;5049725;28;25148;-76
2022/08/09 09:21:32;;;;;;;4.43;1.70;;;22.60;99.90;;;;;;5056100;28;25057;-73
2022/08/09 09:24:03;;;;;;;2.15;1.10;;;22.30;99.90;;;;;;5051555;28;25097;-73
2022/08/09 09:26:29;;;;;;;4.38;1.23;;;22.30;99.90;;;;;;5048825;28;25070;-74
2022/08/09 09:28:55;;;;;;;3.90;1.48;;;22.90;99.90;;;;;;5047147;28;25066;-71
2022/08/09 09:31:22;;;;;;;1.15;0.90;;;23.20;99.90;;;;;;5045370;28;25112;-73
2022/08/09 09:33:48;;;;;;;3.15;1.20;;;22.90;99.90;;;;;;5049836;28;25087;-73
2022/08/09 09:36:14;;;;;;;3.13;1.33;;;22.70;99.90;;;;;;5053904;28;24768;-75
2022/08/09 09:38:56;;;;;;;2.60;1.20;;;22.70;99.90;;;;;;5057432;28;25128;-73
2022/08/09 09:41:22;;;;;;;1.65;1.00;;;23.20;99.90;;;;;;5054527;28;25131;-75
2022/08/09 09:43:51;;;;;;;2.55;1.15;;;23.30;99.90;;;;;;5065739;28;25140;-74
2022/08/09 09:46:18;;;;;;;5.45;1.30;;;23.30;99.90;;;;;;5056469;28;25046;-72
2022/08/09 09:48:59;;;;;;;3.20;1.92;;;23.70;99.90;;;;;;5066275;28;25166;-72
2022/08/09 09:51:28;;;;;;;3.40;1.58;;;23.50;99.90;;;;;;5057424;28;25090;-76
2022/08/09 09:54:17;;;;;;;1.40;1.27;;;22.90;99.90;;;;;;5072257;28;25104;-74
2022/08/09 09:56:48;;;;;;;4.35;1.30;;;23.30;99.90;;;;;;5062600;28;25067;-75
2022/08/09 09:59:19;;;;;;;2.45;1.00;;;23.50;99.90;;;;;;5055519;28;25039;-73
2022/08/09 10:01:45;;;;;;;1.10;1.00;;;23.80;99.90;;;;;;5060818;28;25090;-75
2022/08/09 10:04:16;;;;;;;4.13;1.20;;;23.50;99.90;;;;;;5057295;28;25129;-76
2022/08/09 10:06:45;;;;;;;4.60;1.00;;;23.60;99.90;;;;;;5079215;28;25067;-73
2022/08/09 10:09:12;;;;;;;1.85;0.95;;;23.60;99.90;;;;;;5080677;28;25119;-74
2022/08/09 10:11:39;;;;;;;1.55;1.00;;;23.40;99.90;;;;;;5065564;28;25067;-74
2022/08/09 10:14:05;;;;;;;4.25;1.25;;;23.30;99.90;;;;;;5061167;28;25091;-74
2022/08/09 10:16:31;;;;;;;2.10;0.90;;;23.60;99.90;;;;;;5044456;28;25088;-74
2022/08/09 10:18:59;;;;;;;1.77;0.73;;;23.80;99.90;;;;;;5054116;28;25060;-73
2022/08/09 10:21:26;;;;;;;1.73;1.00;;;24.30;99.90;;;;;;5050216;28;25070;-73
2022/08/09 10:23:53;;;;;;;2.67;1.10;;;24.60;99.90;;;;;;5053723;28;25079;-73
2022/08/09 10:26:20;;;;;;;1.60;0.90;;;24.30;99.90;;;;;;5048917;28;25112;-71
2022/08/09 10:28:47;;;;;;;1.33;0.88;;;24.60;99.90;;;;;;5046055;28;25100;-72
2022/08/09 10:31:13;;;;;;;2.60;1.13;;;25.00;99.90;;;;;;5045435;28;25063;-72
2022/08/09 10:33:40;;;;;;;1.95;1.17;;;25.20;99.90;;;;;;5049625;28;25152;-73
2022/08/09 10:36:08;;;;;;;1.48;1.00;;;24.70;99.90;;;;;;5034319;28;25085;-71
2022/08/09 10:38:35;;;;;;;4.35;1.00;;;25.00;99.90;;;;;;5058511;28;25065;-73
2022/08/09 10:41:01;;;;;;;1.48;0.80;;;24.90;98.60;;;;;;5057306;28;25093;-73
2022/08/09 10:43:27;;;;;;;2.25;1.00;;;25.00;98.40;;;;;;5054336;28;25104;-75
2022/08/09 10:45:54;;;;;;;6.28;1.83;;;24.50;97.50;;;;;;5044583;28;25077;-75
2022/08/09 10:48:40;;;;;;;2.13;0.82;;;24.40;97.90;;;;;;5042914;28;25057;-74
2022/08/09 10:51:37;;;;;;;0.80;0.80;;;24.30;98.50;;;;;;5032854;28;25178;-75
2022/08/09 10:54:05;;;;;;;1.60;1.00;;;24.20;99.90;;;;;;5014301;28;25112;-75
2022/08/09 10:56:33;;;;;;;2.55;1.25;;;24.60;99.40;;;;;;5042896;28;25073;-75
2022/08/09 10:59:02;;;;;;;2.97;0.82;;;24.30;99.60;;;;;;5039864;28;25183;-78
2022/08/09 11:01:30;;;;;;;2.20;0.80;;;24.90;97.70;;;;;;5046342;28;25070;-75
2022/08/09 11:04:08;;;;;;;0.90;0.70;;;25.00;95.50;;;;;;5032480;28;25053;-73
2022/08/09 11:06:38;;;;;;;3.75;0.77;;;24.80;94.30;;;;;;5047415;28;25081;-73
2022/08/09 11:09:05;;;;;;;1.70;0.80;;;25.20;94.30;;;;;;5044860;28;25066;-73
2022/08/09 11:11:53;;;;;;;1.73;0.90;;;25.70;90.50;;;;;;5043179;28;25083;-72
2022/08/09 11:14:40;;;;;;;1.30;1.05;;;25.20;86.00;;;;;;5052486;28;25066;-73
2022/08/09 11:17:12;;;;;;;1.20;0.77;;;25.50;85.70;;;;;;5047082;28;25053;-74
2022/08/09 11:19:57;;;;;;;1.75;1.10;;;25.80;83.40;;;;;;5037489;28;25104;-75
2022/08/09 11:22:56;;;;;;;2.30;1.00;;;25.60;85.80;;;;;;5038075;28;25061;-74
2022/08/09 11:25:35;;;;;;;1.70;0.95;;;25.80;87.00;;;;;;5041219;28;25086;-77
2022/08/09 11:28:32;;;;;;;2.45;0.80;;;26.40;81.40;;;;;;5045939;28;25074;-76
2022/08/09 11:30:59;;;;;;;3.92;0.90;;;26.50;69.10;;;;;;5032754;28;25108;-74
2022/08/09 11:33:44;;;;;;;1.63;0.80;;;26.00;67.90;;;;;;5043062;28;25160;-74
2022/08/09 11:36:12;;;;;;;2.80;1.10;;;26.00;69.10;;;;;;5033929;28;25052;-73
2022/08/09 11:38:37;;;;;;;1.25;0.80;;;26.00;71.30;;;;;;5035275;28;25066;-73
2022/08/09 11:41:08;;;;;;;1.85;1.02;;;25.80;76.20;;;;;;5035506;28;25056;-72
2022/08/09 11:43:34;;;;;;;3.00;1.10;;;25.70;76.60;;;;;;5036602;28;25106;-73
2022/08/09 11:46:01;;;;;;;1.55;0.82;;;26.20;74.90;;;;;;5039187;28;25173;-73
2022/08/09 11:48:32;;;;;;;2.17;1.10;;;26.30;71.70;;;;;;5033823;28;25090;-73
2022/08/09 11:50:58;;;;;;;2.25;0.80;;;26.50;69.60;;;;;;5047548;28;25050;-73
2022/08/09 11:53:39;;;;;;;2.78;0.80;;;26.00;66.10;;;;;;5059231;28;25083;-74
2022/08/09 11:56:14;;;;;;;5.55;1.80;;;26.40;65.20;;;;;;5042442;28;25103;-73
2022/08/09 11:58:46;;;;;;;1.95;0.85;;;26.00;66.80;;;;;;5054107;28;25070;-73
2022/08/09 12:01:13;;;;;;;;;;;25.60;74.60;;;;;;5038266;28;25125;-77
2022/08/09 12:03:39;;;;;;;2.78;0.95;;;25.80;74.80;;;;;;5041852;28;24109;-73
2022/08/09 12:06:18;;;;;;;3.38;1.10;;;26.30;65.50;;;;;;5049372;28;25064;-76
2022/08/09 12:08:52;;;;;;;1.38;0.65;;;26.40;58.60;;;;;;5040555;28;25071;-75
2022/08/09 12:11:21;;;;;;;1.27;0.70;;;26.10;59.40;;;;;;5044825;28;25107;-76
2022/08/09 12:13:50;;;;;;;4.47;1.00;;;26.90;56.20;;;;;;5044719;28;25089;-75
2022/08/09 12:16:19;;;;;;;3.10;1.00;;;27.40;47.70;;;;;;5046357;28;25069;-77
2022/08/09 12:18:48;;;;;;;2.88;0.60;;;27.20;42.90;;;;;;5047794;28;25157;-73
2022/08/09 12:21:27;;;;;;;1.95;0.93;;;27.40;45.00;;;;;;5035066;28;25056;-74
2022/08/09 12:23:54;;;;;;;4.20;0.70;;;27.30;41.90;;;;;;5048985;28;25127;-76
2022/08/09 12:26:21;;;;;;;6.82;1.15;;;27.40;42.90;;;;;;5050655;28;25072;-74
2022/08/09 12:28:52;;;;;;;3.65;0.88;;;27.00;41.70;;;;;;5052655;28;25075;-75
2022/08/09 12:31:25;;;;;;;1.23;0.70;;;26.40;47.10;;;;;;5054886;28;25078;-73
2022/08/09 12:33:53;;;;;;;3.22;0.70;;;26.70;54.50;;;;;;5041899;28;25064;-76
2022/08/09 12:36:19;;;;;;;4.10;0.85;;;26.80;47.40;;;;;;5042460;28;25080;-72
2022/08/09 12:38:44;;;;;;;4.00;0.80;;;26.70;50.80;;;;;;5057255;28;25139;-74
2022/08/09 12:41:11;;;;;;;3.65;1.23;;;27.00;53.00;;;;;;5049103;28;25066;-72
2022/08/09 12:43:38;;;;;;;1.48;0.98;;;27.60;51.30;;;;;;5055671;28;25069;-72
2022/08/09 12:46:04;;;;;;;2.92;1.20;;;27.30;42.80;;;;;;5059915;28;25047;-72